Time,TemperatureF,DewpointF,PressureIn,WindDirection,WindDirectionDegrees,WindSpeedMPH,WindSpeedGustMPH,Humidity,HourlyPrecipIn,Conditions,Clouds,dailyrainin,SoftwareType,DateUTC
2013-03-02 00:01:00,27.0,23.0,-100.00,North,354,4.0,6.0,86,-99.99,,,-99.99,,2013-03-02 08:01:00,
2013-03-02 00:11:00,27.0,23.0,-100.00,North,356,4.0,6.0,84,-99.99,,,-99.99,,2013-03-02 08:11:00,
2013-03-02 00:21:00,26.0,22.0,-100.00,NNW,343,3.0,5.0,85,-99.99,,,-99.99,,2013-03-02 08:21:00,
2013-03-02 00:32:00,26.0,23.0,-100.00,NNW,347,3.0,5.0,85,-99.99,,,-99.99,,2013-03-02 08:32:00,
2013-03-02 00:42:00,25.0,22.0,-100.00,North,352,2.0,4.0,86,-99.99,,,-99.99,,2013-03-02 08:42:00,
2013-03-02 00:52:00,25.0,22.0,-100.00,North,352,2.0,4.0,86,-99.99,,,-99.99,,2013-03-02 08:52:00,
2013-03-02 01:01:00,24.0,21.0,-100.00,NNE,30,0.0,2.0,87,-99.99,,,-99.99,,2013-03-02 09:01:00,
2013-03-02 01:11:00,23.0,20.0,-100.00,North,353,1.0,2.0,88,-99.99,,,-99.99,,2013-03-02 09:11:00,
2013-03-02 01:21:00,23.0,20.0,-100.00,North,356,2.0,3.0,89,-99.99,,,-99.99,,2013-03-02 09:21:00,
2013-03-02 01:31:00,23.0,20.0,-100.00,NNW,340,2.0,3.0,91,-99.99,,,-99.99,,2013-03-02 09:31:00,
2013-03-02 01:42:00,22.0,20.0,-100.00,NNW,340,2.0,3.0,91,-99.99,,,-99.99,,2013-03-02 09:42:00,
2013-03-02 01:51:00,23.0,21.0,-100.00,NNW,342,3.0,4.0,92,-99.99,,,-99.99,,2013-03-02 09:51:00,
2013-03-02 02:01:00,22.0,20.0,-100.00,North,357,1.0,3.0,91,-99.99,,,-99.99,,2013-03-02 10:01:00,
2013-03-02 02:15:00,21.0,19.0,-100.00,North,10,0.0,2.0,91,-99.99,,,-99.99,,2013-03-02 10:15:00,
2013-03-02 02:21:00,21.0,19.0,-100.00,North,353,1.0,2.0,92,-99.99,,,-99.99,,2013-03-02 10:21:00,
2013-03-02 02:31:00,22.0,20.0,-100.00,NNW,343,1.0,3.0,93,-99.99,,,-99.99,,2013-03-02 10:31:00,
2013-03-02 02:42:00,21.0,19.0,-100.00,NNW,343,3.0,4.0,92,-99.99,,,-99.99,,2013-03-02 10:42:00,
2013-03-02 02:51:00,21.0,19.0,-100.00,North,352,1.0,3.0,93,-99.99,,,-99.99,,2013-03-02 10:51:00,
2013-03-02 03:01:00,20.0,18.0,-100.00,NNW,344,2.0,3.0,92,-99.99,,,-99.99,,2013-03-02 11:01:00,
2013-03-02 03:11:00,20.0,18.0,-100.00,NNW,342,2.0,3.0,93,-99.99,,,-99.99,,2013-03-02 11:11:00,
2013-03-02 03:21:00,20.0,18.0,-100.00,NNW,344,2.0,3.0,93,-99.99,,,-99.99,,2013-03-02 11:21:00,
2013-03-02 03:31:00,19.0,17.0,-100.00,NNW,329,2.0,3.0,92,-99.99,,,-99.99,,2013-03-02 11:31:00,
2013-03-02 03:41:00,19.0,17.0,-100.00,NNW,346,2.0,3.0,92,-99.99,,,-99.99,,2013-03-02 11:41:00,
2013-03-02 03:52:00,20.0,18.0,-100.00,North,6,2.0,4.0,93,-99.99,,,-99.99,,2013-03-02 11:52:00,
2013-03-02 04:02:00,19.0,18.0,-100.00,North,10,1.0,2.0,93,-99.99,,,-99.99,,2013-03-02 12:02:00,
2013-03-02 04:11:00,19.0,17.0,-100.00,NNW,344,2.0,3.0,93,-99.99,,,-99.99,,2013-03-02 12:11:00,
2013-03-02 04:21:00,19.0,17.0,-100.00,NNW,332,1.0,2.0,93,-99.99,,,-99.99,,2013-03-02 12:21:00,
2013-03-02 04:32:00,18.0,17.0,-100.00,North,353,1.0,3.0,93,-99.99,,,-99.99,,2013-03-02 12:32:00,
2013-03-02 04:43:00,19.0,17.0,-100.00,North,10,1.0,2.0,93,-99.99,,,-99.99,,2013-03-02 12:43:00,
2013-03-02 04:53:00,18.0,16.0,-100.00,NNW,337,1.0,2.0,93,-99.99,,,-99.99,,2013-03-02 12:53:00,
2013-03-02 05:01:00,18.0,16.0,-100.00,NNW,336,0.0,2.0,93,-99.99,,,-99.99,,2013-03-02 13:01:00,
2013-03-02 05:11:00,18.0,16.0,-100.00,North,360,0.0,2.0,93,-99.99,,,-99.99,,2013-03-02 13:11:00,
2013-03-02 05:21:00,18.0,16.0,-100.00,North,4,2.0,3.0,93,-99.99,,,-99.99,,2013-03-02 13:21:00,
2013-03-02 05:31:00,18.0,16.0,-100.00,North,4,2.0,3.0,93,-99.99,,,-99.99,,2013-03-02 13:31:00,
2013-03-02 05:42:00,17.0,15.0,-100.00,North,360,1.0,2.0,92,-99.99,,,-99.99,,2013-03-02 13:42:00,
2013-03-02 05:52:00,17.0,15.0,-100.00,North,360,1.0,2.0,92,-99.99,,,-99.99,,2013-03-02 13:52:00,
2013-03-02 06:01:00,18.0,16.0,-100.00,North,8,1.0,3.0,93,-99.99,,,-99.99,,2013-03-02 14:01:00,
2013-03-02 06:11:00,18.0,16.0,-100.00,NNE,13,0.0,2.0,93,-99.99,,,-99.99,,2013-03-02 14:11:00,
2013-03-02 06:21:00,18.0,16.0,-100.00,North,1,0.0,2.0,93,-99.99,,,-99.99,,2013-03-02 14:21:00,
2013-03-02 06:32:00,18.0,17.0,-100.00,North,-999,0.0,0.0,94,-99.99,,,-99.99,,2013-03-02 14:32:00,
2013-03-02 06:42:00,19.0,17.0,-100.00,NE,45,0.0,0.0,92,-99.99,,,-99.99,,2013-03-02 14:42:00,
2013-03-02 06:52:00,19.0,17.0,-100.00,North,-999,0.0,0.0,92,-99.99,,,-99.99,,2013-03-02 14:52:00,
2013-03-02 07:01:00,17.0,15.0,-100.00,North,-999,0.0,0.0,92,-99.99,,,-99.99,,2013-03-02 15:01:00,
2013-03-02 07:21:00,18.0,16.0,-100.00,North,-999,0.0,0.0,93,-99.99,,,-99.99,,2013-03-02 15:21:00,
2013-03-02 07:31:00,20.0,18.0,-100.00,North,-999,0.0,0.0,92,-99.99,,,-99.99,,2013-03-02 15:31:00,
2013-03-02 07:41:00,21.0,19.0,-100.00,North,-999,0.0,0.0,92,-99.99,,,-99.99,,2013-03-02 15:41:00,
2013-03-02 07:52:00,23.0,21.0,-100.00,NNW,330,0.0,2.0,92,-99.99,,,-99.99,,2013-03-02 15:52:00,
2013-03-02 08:01:00,25.0,23.0,-100.00,NNW,328,1.0,3.0,90,-99.99,,,-99.99,,2013-03-02 16:01:00,
2013-03-02 08:11:00,25.0,23.0,-100.00,NNW,328,1.0,3.0,90,-99.99,,,-99.99,,2013-03-02 16:11:00,
2013-03-02 08:21:00,29.0,25.0,-100.00,ENE,62,0.0,2.0,84,-99.99,,,-99.99,,2013-03-02 16:21:00,
2013-03-02 08:31:00,31.0,26.0,-100.00,ESE,103,0.0,0.0,84,-99.99,,,-99.99,,2013-03-02 16:31:00,
2013-03-02 08:41:00,34.0,26.0,-100.00,SE,124,0.0,0.0,73,-99.99,,,-99.99,,2013-03-02 16:41:00,
2013-03-02 08:51:00,36.0,27.0,-100.00,South,189,0.0,4.0,69,-99.99,,,-99.99,,2013-03-02 16:51:00,
2013-03-02 09:01:00,41.0,25.0,-100.00,SW,215,5.0,9.0,53,-99.99,,,-99.99,,2013-03-02 17:01:00,
2013-03-02 09:11:00,42.0,24.0,-100.00,SSW,205,6.0,9.0,50,-99.99,,,-99.99,,2013-03-02 17:11:00,
2013-03-02 09:21:00,42.0,25.0,-100.00,SSW,209,6.0,11.0,50,-99.99,,,-99.99,,2013-03-02 17:21:00,
2013-03-02 09:32:00,43.0,25.0,-100.00,SSW,202,7.0,13.0,48,-99.99,,,-99.99,,2013-03-02 17:32:00,
2013-03-02 09:41:00,43.0,26.0,-100.00,SSW,205,7.0,12.0,50,-99.99,,,-99.99,,2013-03-02 17:41:00,
2013-03-02 09:52:00,44.0,26.0,-100.00,SSW,208,7.0,12.0,48,-99.99,,,-99.99,,2013-03-02 17:52:00,
2013-03-02 10:01:00,44.0,25.0,-100.00,SW,217,8.0,13.0,48,-99.99,,,-99.99,,2013-03-02 18:01:00,
2013-03-02 10:11:00,44.0,25.0,-100.00,SSW,209,10.0,17.0,48,-99.99,,,-99.99,,2013-03-02 18:11:00,
2013-03-02 10:22:00,43.0,25.0,-100.00,SSW,203,9.0,13.0,49,-99.99,,,-99.99,,2013-03-02 18:22:00,
2013-03-02 10:31:00,43.0,26.0,-100.00,SSW,213,9.0,14.0,49,-99.99,,,-99.99,,2013-03-02 18:31:00,
2013-03-02 10:42:00,44.0,25.0,-100.00,SSW,205,11.0,19.0,47,-99.99,,,-99.99,,2013-03-02 18:42:00,
2013-03-02 10:52:00,46.0,26.0,-100.00,SSW,202,11.0,19.0,46,-99.99,,,-99.99,,2013-03-02 18:52:00,
2013-03-02 11:01:00,45.0,24.0,-100.00,SSW,198,10.0,18.0,43,-99.99,,,-99.99,,2013-03-02 19:01:00,
2013-03-02 11:11:00,45.0,25.0,-100.00,South,191,11.0,18.0,44,-99.99,,,-99.99,,2013-03-02 19:11:00,
2013-03-02 11:21:00,45.0,25.0,-100.00,SSW,199,11.0,16.0,45,-99.99,,,-99.99,,2013-03-02 19:21:00,
2013-03-02 11:31:00,47.0,25.0,-100.00,SSW,205,13.0,20.0,42,-99.99,,,-99.99,,2013-03-02 19:31:00,
2013-03-02 11:42:00,47.0,24.0,-100.00,SSW,205,13.0,20.0,40,-99.99,,,-99.99,,2013-03-02 19:42:00,
2013-03-02 11:52:00,48.0,26.0,-100.00,SSW,199,12.0,20.0,42,-99.99,,,-99.99,,2013-03-02 19:52:00,
2013-03-02 12:01:00,48.0,26.0,-100.00,SSW,199,12.0,20.0,42,-99.99,,,-99.99,,2013-03-02 20:01:00,
2013-03-02 12:11:00,47.0,25.0,-100.00,SSW,198,13.0,21.0,42,-99.99,,,-99.99,,2013-03-02 20:11:00,
2013-03-02 12:21:00,48.0,25.0,-100.00,South,191,12.0,21.0,40,-99.99,,,-99.99,,2013-03-02 20:21:00,
2013-03-02 12:32:00,48.0,25.0,-100.00,SSW,192,13.0,21.0,39,-99.99,,,-99.99,,2013-03-02 20:32:00,
2013-03-02 12:42:00,49.0,25.0,-100.00,South,189,12.0,18.0,39,-99.99,,,-99.99,,2013-03-02 20:42:00,
2013-03-02 12:52:00,49.0,24.0,-100.00,South,189,13.0,23.0,37,-99.99,,,-99.99,,2013-03-02 20:52:00,
2013-03-02 13:02:00,49.0,24.0,-100.00,South,189,13.0,23.0,37,-99.99,,,-99.99,,2013-03-02 21:02:00,
2013-03-02 13:11:00,49.0,22.0,-100.00,SSW,193,13.0,20.0,34,-99.99,,,-99.99,,2013-03-02 21:11:00,
2013-03-02 13:22:00,49.0,23.0,-100.00,SSW,195,12.0,19.0,35,-99.99,,,-99.99,,2013-03-02 21:22:00,
2013-03-02 13:31:00,50.0,24.0,-100.00,South,182,9.0,16.0,35,-99.99,,,-99.99,,2013-03-02 21:31:00,
2013-03-02 13:42:00,48.0,23.0,-100.00,SSW,200,13.0,21.0,37,-99.99,,,-99.99,,2013-03-02 21:42:00,
2013-03-02 13:52:00,49.0,22.0,-100.00,South,188,11.0,20.0,35,-99.99,,,-99.99,,2013-03-02 21:52:00,
2013-03-02 14:01:00,48.0,25.0,-100.00,South,191,13.0,22.0,40,-99.99,,,-99.99,,2013-03-02 22:01:00,
2013-03-02 14:11:00,48.0,24.0,-100.00,South,188,13.0,21.0,39,-99.99,,,-99.99,,2013-03-02 22:11:00,
2013-03-02 14:21:00,47.0,24.0,-100.00,SSW,192,13.0,19.0,40,-99.99,,,-99.99,,2013-03-02 22:21:00,
2013-03-02 14:32:00,50.0,25.0,-100.00,SSW,192,13.0,20.0,38,-99.99,,,-99.99,,2013-03-02 22:32:00,
2013-03-02 14:42:00,49.0,23.0,-100.00,SSW,192,12.0,20.0,35,-99.99,,,-99.99,,2013-03-02 22:42:00,
2013-03-02 14:52:00,48.0,24.0,-100.00,SSW,192,12.0,20.0,38,-99.99,,,-99.99,,2013-03-02 22:52:00,
2013-03-02 15:01:00,50.0,23.0,-100.00,South,189,11.0,19.0,35,-99.99,,,-99.99,,2013-03-02 23:01:00,
2013-03-02 15:11:00,48.0,23.0,-100.00,South,189,12.0,20.0,36,-99.99,,,-99.99,,2013-03-02 23:11:00,
2013-03-02 15:21:00,48.0,23.0,-100.00,South,189,12.0,20.0,36,-99.99,,,-99.99,,2013-03-02 23:21:00,
2013-03-02 15:32:00,49.0,24.0,-100.00,South,185,9.0,15.0,37,-99.99,,,-99.99,,2013-03-02 23:32:00,
2013-03-02 15:42:00,49.0,23.0,-100.00,South,191,9.0,16.0,36,-99.99,,,-99.99,,2013-03-02 23:42:00,
2013-03-02 15:52:00,49.0,22.0,-100.00,South,189,9.0,17.0,35,-99.99,,,-99.99,,2013-03-02 23:52:00,
2013-03-02 16:02:00,49.0,21.0,-100.00,South,185,9.0,17.0,33,-99.99,,,-99.99,,2013-03-03 00:02:00,
2013-03-02 16:11:00,49.0,21.0,-100.00,South,185,9.0,17.0,33,-99.99,,,-99.99,,2013-03-03 00:11:00,
2013-03-02 16:22:00,49.0,23.0,-100.00,South,186,9.0,19.0,36,-99.99,,,-99.99,,2013-03-03 00:22:00,
2013-03-02 16:32:00,48.0,23.0,-100.00,South,185,9.0,17.0,38,-99.99,,,-99.99,,2013-03-03 00:32:00,
2013-03-02 16:42:00,48.0,23.0,-100.00,South,185,9.0,17.0,38,-99.99,,,-99.99,,2013-03-03 00:42:00,
2013-03-02 16:52:00,47.0,24.0,-100.00,South,188,8.0,14.0,40,-99.99,,,-99.99,,2013-03-03 00:52:00,
2013-03-02 17:01:00,47.0,24.0,-100.00,South,184,8.0,15.0,40,-99.99,,,-99.99,,2013-03-03 01:01:00,
2013-03-02 17:11:00,47.0,25.0,-100.00,South,185,6.0,12.0,42,-99.99,,,-99.99,,2013-03-03 01:11:00,
2013-03-02 17:21:00,46.0,24.0,-100.00,South,176,5.0,10.0,42,-99.99,,,-99.99,,2013-03-03 01:21:00,
2013-03-02 17:31:00,46.0,24.0,-100.00,South,185,4.0,9.0,42,-99.99,,,-99.99,,2013-03-03 01:31:00,
2013-03-02 17:41:00,46.0,25.0,-100.00,SSE,158,3.0,7.0,43,-99.99,,,-99.99,,2013-03-03 01:41:00,
2013-03-02 17:52:00,45.0,24.0,-100.00,SSE,167,3.0,7.0,42,-99.99,,,-99.99,,2013-03-03 01:52:00,
2013-03-02 18:01:00,46.0,24.0,-100.00,South,175,4.0,11.0,42,-99.99,,,-99.99,,2013-03-03 02:01:00,
2013-03-02 18:11:00,45.0,23.0,-100.00,South,175,5.0,12.0,42,-99.99,,,-99.99,,2013-03-03 02:11:00,
2013-03-02 18:21:00,45.0,23.0,-100.00,South,178,5.0,11.0,42,-99.99,,,-99.99,,2013-03-03 02:21:00,
2013-03-02 18:31:00,44.0,23.0,-100.00,South,182,5.0,10.0,43,-99.99,,,-99.99,,2013-03-03 02:31:00,
2013-03-02 18:41:00,44.0,22.0,-100.00,South,182,5.0,12.0,41,-99.99,,,-99.99,,2013-03-03 02:41:00,
2013-03-02 18:52:00,44.0,23.0,-100.00,South,172,4.0,9.0,43,-99.99,,,-99.99,,2013-03-03 02:52:00,
2013-03-02 19:01:00,41.0,24.0,-100.00,SW,230,2.0,8.0,51,-99.99,,,-99.99,,2013-03-03 03:01:00,
2013-03-02 19:11:00,38.0,24.0,-100.00,NNE,16,1.0,3.0,57,-99.99,,,-99.99,,2013-03-03 03:11:00,
2013-03-02 19:21:00,37.0,25.0,-100.00,East,85,0.0,2.0,60,-99.99,,,-99.99,,2013-03-03 03:21:00,
2013-03-02 19:31:00,37.0,25.0,-100.00,SSE,148,2.0,6.0,61,-99.99,,,-99.99,,2013-03-03 03:31:00,
2013-03-02 19:41:00,35.0,25.0,-100.00,WSW,256,2.0,5.0,65,-99.99,,,-99.99,,2013-03-03 03:41:00,
2013-03-02 19:52:00,35.0,24.0,-100.00,NW,316,1.0,3.0,64,-99.99,,,-99.99,,2013-03-03 03:52:00,
2013-03-02 20:01:00,35.0,25.0,-100.00,NW,320,0.0,2.0,65,-99.99,,,-99.99,,2013-03-03 04:01:00,
2013-03-02 20:11:00,34.0,25.0,-100.00,North,359,0.0,2.0,67,-99.99,,,-99.99,,2013-03-03 04:11:00,
2013-03-02 20:21:00,33.0,25.0,-100.00,NNE,21,0.0,2.0,70,-99.99,,,-99.99,,2013-03-03 04:21:00,
2013-03-02 20:31:00,33.0,25.0,-100.00,North,-999,0.0,0.0,71,-99.99,,,-99.99,,2013-03-03 04:31:00,
2013-03-02 20:41:00,32.0,25.0,-100.00,North,359,1.0,2.0,73,-99.99,,,-99.99,,2013-03-03 04:41:00,
2013-03-02 20:51:00,32.0,24.0,-100.00,NE,54,0.0,5.0,72,-99.99,,,-99.99,,2013-03-03 04:51:00,
2013-03-02 21:01:00,34.0,24.0,-100.00,SSE,164,3.0,10.0,65,-99.99,,,-99.99,,2013-03-03 05:01:00,
2013-03-02 21:11:00,39.0,23.0,-100.00,SSE,165,3.0,7.0,52,-99.99,,,-99.99,,2013-03-03 05:11:00,
2013-03-02 21:22:00,42.0,22.0,-100.00,South,178,4.0,10.0,45,-99.99,,,-99.99,,2013-03-03 05:22:00,
2013-03-02 21:32:00,42.0,21.0,-100.00,South,185,5.0,10.0,43,-99.99,,,-99.99,,2013-03-03 05:32:00,
2013-03-02 21:42:00,42.0,22.0,-100.00,South,182,7.0,13.0,43,-99.99,,,-99.99,,2013-03-03 05:42:00,
2013-03-02 21:52:00,42.0,21.0,-100.00,South,181,6.0,13.0,43,-99.99,,,-99.99,,2013-03-03 05:52:00,
2013-03-02 22:01:00,42.0,21.0,-100.00,South,179,5.0,11.0,43,-99.99,,,-99.99,,2013-03-03 06:01:00,
2013-03-02 22:11:00,42.0,21.0,-100.00,South,172,7.0,13.0,42,-99.99,,,-99.99,,2013-03-03 06:11:00,
2013-03-02 22:21:00,43.0,21.0,-100.00,SSE,168,9.0,18.0,41,-99.99,,,-99.99,,2013-03-03 06:21:00,
2013-03-02 22:31:00,43.0,20.0,-100.00,South,174,10.0,19.0,39,-99.99,,,-99.99,,2013-03-03 06:31:00,
2013-03-02 22:42:00,44.0,20.0,-100.00,South,172,11.0,22.0,38,-99.99,,,-99.99,,2013-03-03 06:42:00,
2013-03-02 22:52:00,43.0,20.0,-100.00,South,174,10.0,18.0,39,-99.99,,,-99.99,,2013-03-03 06:52:00,
2013-03-02 23:01:00,43.0,20.0,-100.00,South,174,9.0,18.0,39,-99.99,,,-99.99,,2013-03-03 07:01:00,
2013-03-02 23:11:00,43.0,19.0,-100.00,South,171,8.0,17.0,39,-99.99,,,-99.99,,2013-03-03 07:11:00,
2013-03-02 23:21:00,43.0,20.0,-100.00,SSE,165,8.0,14.0,39,-99.99,,,-99.99,,2013-03-03 07:21:00,
2013-03-02 23:31:00,42.0,19.0,-100.00,SSE,165,8.0,15.0,39,-99.99,,,-99.99,,2013-03-03 07:31:00,
2013-03-02 23:42:00,43.0,20.0,-100.00,SSE,167,7.0,13.0,40,-99.99,,,-99.99,,2013-03-03 07:42:00,
2013-03-02 23:51:00,43.0,19.0,-100.00,South,171,6.0,13.0,38,-99.99,,,-99.99,,2013-03-03 07:51:00,